createdAt,value
2022-09-15T00:05:25.561Z,73308.53
2022-09-15T00:15:27.670Z,73304.47
2022-09-15T00:25:29.626Z,73304.47
2022-09-15T00:35:40.301Z,73314.59
2022-09-15T00:45:45.005Z,73330.75
2022-09-15T00:55:50.846Z,73324.69
2022-09-15T01:06:01.096Z,73302.44
2022-09-15T01:16:32.724Z,73296.38
2022-09-15T01:27:13.695Z,73292.34
2022-09-15T01:37:31.628Z,73294.34
2022-09-15T01:47:34.632Z,73298.41
2022-09-15T01:57:38.991Z,73302.44
2022-09-15T02:07:45.618Z,73310.53
2022-09-15T02:17:55.624Z,73310.53
2022-09-15T02:28:04.672Z,73322.69
2022-09-15T02:38:11.369Z,73302.44
2022-09-15T02:48:16.009Z,73298.41
2022-09-15T02:58:20.499Z,73312.56
2022-09-15T03:08:22.640Z,73314.59
2022-09-15T03:18:27.417Z,73328.75
2022-09-15T03:28:35.157Z,73322.69
2022-09-15T03:38:39.448Z,73336.84
2022-09-15T03:48:44.075Z,73348.97
2022-09-15T03:58:47.714Z,73371.22
2022-09-15T04:08:53.325Z,73371.22
2022-09-15T04:18:56.844Z,73381.34
2022-09-15T04:29:04.639Z,73371.22
2022-09-15T04:39:10.680Z,73314.59
2022-09-15T04:49:19.112Z,73340.88
2022-09-15T04:59:24.220Z,73363.13
2022-09-15T05:09:30.064Z,73375.25
2022-09-15T05:19:34.368Z,73363.13
2022-09-15T05:29:39.485Z,73363.13
2022-09-15T05:39:50.884Z,73355.03
2022-09-15T05:49:58.800Z,73346.94
2022-09-15T06:00:04.980Z,73334.81
2022-09-15T06:10:18.945Z,73334.81
2022-09-15T06:20:21.603Z,73318.63
2022-09-15T06:30:28.097Z,73290.31
2022-09-15T06:40:31.178Z,73290.31
2022-09-15T06:50:33.278Z,73245.81
2022-09-15T07:00:38.957Z,73181.09
2022-09-15T07:10:44.427Z,73173.00
2022-09-15T07:20:51.584Z,73088.06
2022-09-15T07:30:56.057Z,73043.56
2022-09-15T07:41:06.588Z,73001.09
2022-09-15T07:51:11.549Z,73007.16
2022-09-15T08:01:18.209Z,72861.56
2022-09-15T08:11:23.083Z,72800.88
2022-09-15T08:21:29.821Z,72827.16
2022-09-15T08:31:34.714Z,72726.06
2022-09-15T08:41:40.263Z,72703.81
2022-09-15T08:51:46.502Z,72651.22
2022-09-15T09:02:06.205Z,72639.09
2022-09-15T09:12:28.749Z,72679.53
2022-09-15T09:22:37.169Z,72705.84
2022-09-15T09:33:17.094Z,72683.59
2022-09-15T09:43:20.440Z,72683.59
2022-09-15T09:53:32.516Z,72715.94
2022-09-15T10:03:39.193Z,72707.84
2022-09-15T10:13:55.409Z,72659.31
2022-09-15T10:24:39.987Z,72691.69
2022-09-15T10:34:44.554Z,72707.84
2022-09-15T10:45:06.299Z,72726.06
2022-09-15T10:55:51.187Z,72766.50
2022-09-15T11:06:20.269Z,72778.63
2022-09-15T11:16:27.507Z,72800.88
2022-09-15T11:27:04.760Z,72796.84
2022-09-15T11:37:16.260Z,72811.00
2022-09-15T11:47:38.940Z,72821.09
2022-09-15T11:58:23.392Z,72802.91
2022-09-15T12:08:53.791Z,72808.97
2022-09-15T12:19:34.053Z,72849.41
2022-09-15T12:29:48.348Z,72853.47
2022-09-15T12:39:53.710Z,72815.03
2022-09-15T12:50:23.401Z,72827.16
2022-09-15T13:00:34.153Z,72847.41
2022-09-15T13:10:43.565Z,72845.38
2022-09-15T13:20:57.409Z,72847.41
2022-09-15T13:31:08.453Z,72861.56
2022-09-15T13:41:56.758Z,72867.63
2022-09-15T13:52:26.545Z,72873.69
2022-09-15T14:02:39.106Z,72861.56
2022-09-15T14:12:53.793Z,72865.59
2022-09-15T14:23:05.121Z,72871.66
2022-09-15T14:33:16.160Z,72881.78
2022-09-15T14:43:43.359Z,72881.78
2022-09-15T14:53:54.138Z,72875.72
2022-09-15T15:04:23.173Z,72889.88
2022-09-15T15:14:26.320Z,72889.88
2022-09-15T15:24:35.809Z,72897.94
2022-09-15T15:34:40.997Z,72930.31
2022-09-15T15:45:05.438Z,72938.41
2022-09-15T15:55:14.225Z,72950.53
2022-09-15T16:05:19.119Z,72952.56
2022-09-15T16:15:30.004Z,72960.66
2022-09-15T16:25:55.244Z,72978.84
2022-09-15T16:36:07.215Z,72999.06
2022-09-15T16:46:10.970Z,73021.31
2022-09-15T16:56:16.890Z,73047.63
2022-09-15T17:06:19.189Z,73084.03
2022-09-15T17:16:28.616Z,73104.25
2022-09-15T17:26:33.212Z,73126.50
2022-09-15T17:36:39.266Z,73144.69
2022-09-15T17:46:42.907Z,73160.88
2022-09-15T17:56:53.252Z,73193.22
2022-09-15T18:06:58.062Z,73217.50
2022-09-15T18:17:01.232Z,73239.75
2022-09-15T18:27:08.880Z,73264.03
2022-09-15T18:37:19.570Z,73262.00
2022-09-15T18:47:26.926Z,73249.88
2022-09-15T18:57:30.138Z,73259.97
2022-09-15T19:07:39.515Z,73262.00
2022-09-15T19:17:47.565Z,73262.00
2022-09-15T19:27:49.995Z,73264.03
2022-09-15T19:37:52.933Z,73270.09
2022-09-15T19:48:00.686Z,73278.19
2022-09-15T19:58:06.236Z,73257.94
2022-09-15T20:08:22.371Z,73272.09
2022-09-15T20:18:35.675Z,73294.34
2022-09-15T20:28:41.035Z,73306.50
2022-09-15T20:38:46.089Z,73334.81
2022-09-15T20:48:50.250Z,73363.13
2022-09-15T20:58:57.169Z,73395.50
2022-09-15T21:09:04.112Z,73425.81
2022-09-15T21:19:15.251Z,73444.03
2022-09-15T21:29:23.268Z,73383.34
2022-09-15T21:39:26.782Z,73462.25
2022-09-15T21:49:31.575Z,73512.81
2022-09-15T21:59:36.619Z,73541.13
2022-09-15T22:09:39.532Z,73565.41
2022-09-15T22:19:44.249Z,73589.66
2022-09-15T22:29:50.837Z,73617.97
2022-09-15T22:39:59.534Z,73636.19
2022-09-15T22:50:06.446Z,73640.22
2022-09-15T23:00:09.332Z,73650.34
2022-09-15T23:10:16.458Z,73660.47
2022-09-15T23:20:26.191Z,73676.66
2022-09-15T23:30:28.613Z,73684.72
2022-09-15T23:40:37.634Z,73690.81
2022-09-15T23:50:48.418Z,73715.06
